KKN weather

Kirkenes Airport (Høybuktmoen)
Kirkenes, Finnmark, Norway

Public forecast

Using degrees Celsius for public forecast. Weather courtesy of forecast.io.

METAR (pilot weather report)

Retrieved 2019/05/25 17:20 UTC (0 seconds ago):

ENKR 251720Z AUTO 07014KT 9999 FEW016/// OVC049/// 03/M01 Q1007 RMK WIND 731FT 07019KT

TAF (pilot weather forecast)

Forecast is more than 12 hours old.

Retrieved 2017/08/31 21:36 UTC (2 years ago):

TAF TAF ENKR 312300Z 3121/0109 29005KT 9999 FEW020 SCT040